sensor_id;sensor_type;location;lat;lon;timestamp;temperature;humidity
5128;DHT22;2582;48.770;9.190;2024-03-06T00:00:41;8.60;99.90
5128;DHT22;2582;48.770;9.190;2024-03-06T00:03:06;8.60;99.90
5128;DHT22;2582;48.770;9.190;2024-03-06T00:05:32;8.60;99.90
5128;DHT22;2582;48.770;9.190;2024-03-06T00:07:57;8.50;99.90
5128;DHT22;2582;48.770;9.190;2024-03-06T00:10:23;8.60;99.90
5128;DHT22;2582;48.770;9.190;2024-03-06T00:12:48;8.70;99.90
5128;DHT22;2582;48.770;9.190;2024-03-06T00:15:14;8.70;99.90
5128;DHT22;2582;48.770;9.190;2024-03-06T00:17:40;8.70;99.90
5128;DHT22;2582;48.770;9.190;2024-03-06T00:20:06;8.70;99.90
5128;DHT22;2582;48.770;9.190;2024-03-06T00:22:32;8.80;99.90
5128;DHT22;2582;48.770;9.190;2024-03-06T00:24:58;8.80;99.90
5128;DHT22;2582;48.770;9.190;2024-03-06T00:27:23;8.80;99.90
5128;DHT22;2582;48.770;9.190;2024-03-06T00:29:49;8.70;99.90
5128;DHT22;2582;48.770;9.190;2024-03-06T00:32:14;8.80;99.90
5128;DHT22;2582;48.770;9.190;2024-03-06T00:34:40;8.80;99.90
5128;DHT22;2582;48.770;9.190;2024-03-06T00:37:05;8.80;99.90
5128;DHT22;2582;48.770;9.190;2024-03-06T00:39:31;8.90;99.90
5128;DHT22;2582;48.770;9.190;2024-03-06T00:41:56;8.80;99.90
5128;DHT22;2582;48.770;9.190;2024-03-06T00:44:22;8.80;99.90
5128;DHT22;2582;48.770;9.190;2024-03-06T00:46:48;8.90;99.90
5128;DHT22;2582;48.770;9.190;2024-03-06T00:49:14;8.90;99.90
5128;DHT22;2582;48.770;9.190;2024-03-06T00:51:39;9.00;99.90
5128;DHT22;2582;48.770;9.190;2024-03-06T00:54:05;8.80;99.90
5128;DHT22;2582;48.770;9.190;2024-03-06T00:56:30;8.80;99.90
5128;DHT22;2582;48.770;9.190;2024-03-06T00:58:56;8.80;99.90
5128;DHT22;2582;48.770;9.190;2024-03-06T01:01:22;8.70;99.90
5128;DHT22;2582;48.770;9.190;2024-03-06T01:03:47;8.60;99.90
5128;DHT22;2582;48.770;9.190;2024-03-06T01:06:13;8.50;99.90
5128;DHT22;2582;48.770;9.190;2024-03-06T01:08:39;8.30;99.90
5128;DHT22;2582;48.770;9.190;2024-03-06T01:11:04;8.40;99.90
5128;DHT22;2582;48.770;9.190;2024-03-06T01:13:30;8.40;99.90
5128;DHT22;2582;48.770;9.190;2024-03-06T01:15:56;8.50;99.90
5128;DHT22;2582;48.770;9.190;2024-03-06T01:18:22;8.60;99.90
5128;DHT22;2582;48.770;9.190;2024-03-06T01:20:47;8.50;99.90
5128;DHT22;2582;48.770;9.190;2024-03-06T01:23:13;8.50;99.90
5128;DHT22;2582;48.770;9.190;2024-03-06T01:25:38;8.40;99.90
5128;DHT22;2582;48.770;9.190;2024-03-06T01:28:04;8.40;99.90
5128;DHT22;2582;48.770;9.190;2024-03-06T01:30:30;8.30;99.90
5128;DHT22;2582;48.770;9.190;2024-03-06T01:32:55;8.30;99.90
5128;DHT22;2582;48.770;9.190;2024-03-06T01:35:21;8.40;99.90
5128;DHT22;2582;48.770;9.190;2024-03-06T01:37:46;8.30;99.90
5128;DHT22;2582;48.770;9.190;2024-03-06T01:40:12;8.30;99.90
5128;DHT22;2582;48.770;9.190;2024-03-06T01:42:38;8.30;99.90
5128;DHT22;2582;48.770;9.190;2024-03-06T01:45:04;8.30;99.90
5128;DHT22;2582;48.770;9.190;2024-03-06T01:47:30;8.30;99.90
5128;DHT22;2582;48.770;9.190;2024-03-06T01:49:55;8.30;99.90
5128;DHT22;2582;48.770;9.190;2024-03-06T01:52:22;8.30;99.90
5128;DHT22;2582;48.770;9.190;2024-03-06T01:54:48;8.30;99.90
5128;DHT22;2582;48.770;9.190;2024-03-06T01:57:16;8.30;99.90
5128;DHT22;2582;48.770;9.190;2024-03-06T01:59:42;8.30;99.90
5128;DHT22;2582;48.770;9.190;2024-03-06T02:02:08;8.40;99.90
5128;DHT22;2582;48.770;9.190;2024-03-06T02:04:37;8.30;99.90
5128;DHT22;2582;48.770;9.190;2024-03-06T02:07:03;8.40;99.90
5128;DHT22;2582;48.770;9.190;2024-03-06T02:09:33;8.40;99.90
5128;DHT22;2582;48.770;9.190;2024-03-06T02:11:58;8.50;99.90
5128;DHT22;2582;48.770;9.190;2024-03-06T02:14:24;8.60;99.90
5128;DHT22;2582;48.770;9.190;2024-03-06T02:16:49;8.60;99.90
5128;DHT22;2582;48.770;9.190;2024-03-06T02:19:15;8.60;99.90
5128;DHT22;2582;48.770;9.190;2024-03-06T02:21:41;8.60;99.90
5128;DHT22;2582;48.770;9.190;2024-03-06T02:24:06;8.60;99.90
5128;DHT22;2582;48.770;9.190;2024-03-06T02:26:33;8.50;99.90
5128;DHT22;2582;48.770;9.190;2024-03-06T02:28:59;8.60;99.90
5128;DHT22;2582;48.770;9.190;2024-03-06T02:31:25;8.60;99.90
5128;DHT22;2582;48.770;9.190;2024-03-06T02:33:51;8.70;99.90
5128;DHT22;2582;48.770;9.190;2024-03-06T02:36:17;8.70;99.90
5128;DHT22;2582;48.770;9.190;2024-03-06T02:38:44;8.80;99.90
5128;DHT22;2582;48.770;9.190;2024-03-06T02:41:10;8.80;99.90
5128;DHT22;2582;48.770;9.190;2024-03-06T02:43:36;8.80;99.90
5128;DHT22;2582;48.770;9.190;2024-03-06T02:46:03;8.80;99.90
5128;DHT22;2582;48.770;9.190;2024-03-06T02:48:28;8.70;99.90
5128;DHT22;2582;48.770;9.190;2024-03-06T02:50:54;8.80;99.90
5128;DHT22;2582;48.770;9.190;2024-03-06T02:53:20;8.80;99.90
5128;DHT22;2582;48.770;9.190;2024-03-06T02:55:46;8.80;99.90
5128;DHT22;2582;48.770;9.190;2024-03-06T02:58:11;8.80;99.90
5128;DHT22;2582;48.770;9.190;2024-03-06T03:00:39;8.90;99.90
5128;DHT22;2582;48.770;9.190;2024-03-06T03:03:05;8.80;99.90
5128;DHT22;2582;48.770;9.190;2024-03-06T03:05:30;8.80;99.90
5128;DHT22;2582;48.770;9.190;2024-03-06T03:07:56;8.80;99.90
5128;DHT22;2582;48.770;9.190;2024-03-06T03:10:21;8.70;99.90
5128;DHT22;2582;48.770;9.190;2024-03-06T03:12:49;8.70;99.90
5128;DHT22;2582;48.770;9.190;2024-03-06T03:15:15;8.70;99.90
5128;DHT22;2582;48.770;9.190;2024-03-06T03:17:41;8.80;99.90
5128;DHT22;2582;48.770;9.190;2024-03-06T03:20:07;8.80;99.90
5128;DHT22;2582;48.770;9.190;2024-03-06T03:22:42;8.70;99.90
5128;DHT22;2582;48.770;9.190;2024-03-06T03:25:12;8.70;99.90
5128;DHT22;2582;48.770;9.190;2024-03-06T03:27:38;8.60;99.90
5128;DHT22;2582;48.770;9.190;2024-03-06T03:30:07;8.60;99.90
5128;DHT22;2582;48.770;9.190;2024-03-06T03:32:34;8.60;99.90
5128;DHT22;2582;48.770;9.190;2024-03-06T03:34:59;8.60;99.90
5128;DHT22;2582;48.770;9.190;2024-03-06T03:37:25;8.60;99.90
5128;DHT22;2582;48.770;9.190;2024-03-06T03:39:51;8.70;99.90
5128;DHT22;2582;48.770;9.190;2024-03-06T03:42:16;8.70;99.90
5128;DHT22;2582;48.770;9.190;2024-03-06T03:44:42;8.70;99.90
5128;DHT22;2582;48.770;9.190;2024-03-06T03:47:07;8.70;99.90
5128;DHT22;2582;48.770;9.190;2024-03-06T03:49:33;8.70;99.90
5128;DHT22;2582;48.770;9.190;2024-03-06T03:51:59;8.80;99.90
5128;DHT22;2582;48.770;9.190;2024-03-06T03:54:24;8.70;99.90
5128;DHT22;2582;48.770;9.190;2024-03-06T03:56:50;8.70;99.90
5128;DHT22;2582;48.770;9.190;2024-03-06T03:59:15;8.70;99.90
5128;DHT22;2582;48.770;9.190;2024-03-06T04:01:41;8.90;99.90
5128;DHT22;2582;48.770;9.190;2024-03-06T04:04:06;8.90;99.90
5128;DHT22;2582;48.770;9.190;2024-03-06T04:06:33;8.90;99.90
5128;DHT22;2582;48.770;9.190;2024-03-06T04:08:59;8.90;99.90
5128;DHT22;2582;48.770;9.190;2024-03-06T04:11:24;8.90;99.90
5128;DHT22;2582;48.770;9.190;2024-03-06T04:13:50;9.00;99.90
5128;DHT22;2582;48.770;9.190;2024-03-06T04:16:17;9.10;99.90
5128;DHT22;2582;48.770;9.190;2024-03-06T04:18:43;9.10;99.90
5128;DHT22;2582;48.770;9.190;2024-03-06T04:21:09;9.10;99.90
5128;DHT22;2582;48.770;9.190;2024-03-06T04:23:36;8.90;99.90
5128;DHT22;2582;48.770;9.190;2024-03-06T04:26:02;8.90;99.90
5128;DHT22;2582;48.770;9.190;2024-03-06T04:28:28;8.80;99.90
5128;DHT22;2582;48.770;9.190;2024-03-06T04:30:54;8.80;99.90
5128;DHT22;2582;48.770;9.190;2024-03-06T04:33:20;8.70;99.90
5128;DHT22;2582;48.770;9.190;2024-03-06T04:35:45;8.70;99.90
5128;DHT22;2582;48.770;9.190;2024-03-06T04:38:11;8.60;99.90
5128;DHT22;2582;48.770;9.190;2024-03-06T04:40:37;8.50;99.90
5128;DHT22;2582;48.770;9.190;2024-03-06T04:43:02;8.50;99.90
5128;DHT22;2582;48.770;9.190;2024-03-06T04:45:28;8.60;99.90
5128;DHT22;2582;48.770;9.190;2024-03-06T04:47:54;8.70;99.90
5128;DHT22;2582;48.770;9.190;2024-03-06T04:50:20;8.60;99.90
5128;DHT22;2582;48.770;9.190;2024-03-06T04:52:45;8.70;99.90
5128;DHT22;2582;48.770;9.190;2024-03-06T04:55:11;8.70;99.90
5128;DHT22;2582;48.770;9.190;2024-03-06T04:57:38;8.70;99.90
5128;DHT22;2582;48.770;9.190;2024-03-06T05:00:06;8.70;99.90
5128;DHT22;2582;48.770;9.190;2024-03-06T05:02:33;8.70;99.90
5128;DHT22;2582;48.770;9.190;2024-03-06T05:05:00;8.60;99.90
5128;DHT22;2582;48.770;9.190;2024-03-06T05:07:30;8.70;99.90
5128;DHT22;2582;48.770;9.190;2024-03-06T05:09:57;8.80;99.90
5128;DHT22;2582;48.770;9.190;2024-03-06T05:12:24;8.80;99.90
5128;DHT22;2582;48.770;9.190;2024-03-06T05:14:51;8.80;99.90
5128;DHT22;2582;48.770;9.190;2024-03-06T05:17:16;8.70;99.90
5128;DHT22;2582;48.770;9.190;2024-03-06T05:19:43;8.70;99.90
5128;DHT22;2582;48.770;9.190;2024-03-06T05:22:08;8.80;99.90
5128;DHT22;2582;48.770;9.190;2024-03-06T05:24:34;8.80;99.90
5128;DHT22;2582;48.770;9.190;2024-03-06T05:26:59;8.90;99.90
5128;DHT22;2582;48.770;9.190;2024-03-06T05:29:25;9.00;99.90
5128;DHT22;2582;48.770;9.190;2024-03-06T05:31:51;9.00;99.90
5128;DHT22;2582;48.770;9.190;2024-03-06T05:34:17;9.00;99.90
5128;DHT22;2582;48.770;9.190;2024-03-06T05:36:43;8.90;99.90
5128;DHT22;2582;48.770;9.190;2024-03-06T05:39:08;8.80;99.90
5128;DHT22;2582;48.770;9.190;2024-03-06T05:41:38;8.90;99.90
5128;DHT22;2582;48.770;9.190;2024-03-06T05:44:04;8.90;99.90
5128;DHT22;2582;48.770;9.190;2024-03-06T05:46:29;8.80;99.90
5128;DHT22;2582;48.770;9.190;2024-03-06T05:48:55;8.90;99.90
5128;DHT22;2582;48.770;9.190;2024-03-06T05:51:21;8.80;99.90
5128;DHT22;2582;48.770;9.190;2024-03-06T05:53:46;8.70;99.90
5128;DHT22;2582;48.770;9.190;2024-03-06T05:56:12;8.50;99.90
5128;DHT22;2582;48.770;9.190;2024-03-06T05:58:37;8.40;99.90
5128;DHT22;2582;48.770;9.190;2024-03-06T06:01:03;8.50;99.90
5128;DHT22;2582;48.770;9.190;2024-03-06T06:03:29;8.70;99.90
5128;DHT22;2582;48.770;9.190;2024-03-06T06:05:55;8.80;99.90
5128;DHT22;2582;48.770;9.190;2024-03-06T06:08:21;8.90;99.90
5128;DHT22;2582;48.770;9.190;2024-03-06T06:10:46;8.70;99.90
5128;DHT22;2582;48.770;9.190;2024-03-06T06:13:12;8.70;99.90
5128;DHT22;2582;48.770;9.190;2024-03-06T06:15:38;8.90;99.90
5128;DHT22;2582;48.770;9.190;2024-03-06T06:18:04;8.80;99.90
5128;DHT22;2582;48.770;9.190;2024-03-06T06:20:29;8.60;99.90
5128;DHT22;2582;48.770;9.190;2024-03-06T06:22:55;8.70;99.90
5128;DHT22;2582;48.770;9.190;2024-03-06T06:25:22;8.80;99.90
5128;DHT22;2582;48.770;9.190;2024-03-06T06:27:47;8.90;99.90
5128;DHT22;2582;48.770;9.190;2024-03-06T06:30:15;9.00;99.90
5128;DHT22;2582;48.770;9.190;2024-03-06T06:32:41;8.90;99.90
5128;DHT22;2582;48.770;9.190;2024-03-06T06:35:07;8.80;99.90
5128;DHT22;2582;48.770;9.190;2024-03-06T06:37:34;9.00;99.90
5128;DHT22;2582;48.770;9.190;2024-03-06T06:40:00;8.90;99.90
5128;DHT22;2582;48.770;9.190;2024-03-06T06:42:28;8.70;99.90
5128;DHT22;2582;48.770;9.190;2024-03-06T06:44:53;8.60;99.90
5128;DHT22;2582;48.770;9.190;2024-03-06T06:47:19;8.70;99.90
5128;DHT22;2582;48.770;9.190;2024-03-06T06:49:44;8.70;99.90
5128;DHT22;2582;48.770;9.190;2024-03-06T06:52:10;8.80;99.90
5128;DHT22;2582;48.770;9.190;2024-03-06T06:54:35;8.70;99.90
5128;DHT22;2582;48.770;9.190;2024-03-06T06:57:01;8.90;99.90
5128;DHT22;2582;48.770;9.190;2024-03-06T06:59:28;9.00;99.90
5128;DHT22;2582;48.770;9.190;2024-03-06T07:01:54;8.90;99.90
5128;DHT22;2582;48.770;9.190;2024-03-06T07:04:19;8.90;99.90
5128;DHT22;2582;48.770;9.190;2024-03-06T07:06:45;8.80;99.90
5128;DHT22;2582;48.770;9.190;2024-03-06T07:09:12;8.90;99.90
5128;DHT22;2582;48.770;9.190;2024-03-06T07:11:37;9.00;99.90
5128;DHT22;2582;48.770;9.190;2024-03-06T07:14:03;8.70;99.90
5128;DHT22;2582;48.770;9.190;2024-03-06T07:16:28;8.70;99.90
5128;DHT22;2582;48.770;9.190;2024-03-06T07:18:54;8.70;99.90
5128;DHT22;2582;48.770;9.190;2024-03-06T07:21:19;8.90;99.90
5128;DHT22;2582;48.770;9.190;2024-03-06T07:23:45;8.80;99.90
5128;DHT22;2582;48.770;9.190;2024-03-06T07:26:10;8.70;99.90
5128;DHT22;2582;48.770;9.190;2024-03-06T07:28:36;8.90;99.90
5128;DHT22;2582;48.770;9.190;2024-03-06T07:31:03;8.80;99.90
5128;DHT22;2582;48.770;9.190;2024-03-06T07:33:28;9.00;99.90
5128;DHT22;2582;48.770;9.190;2024-03-06T07:35:56;8.80;99.90
5128;DHT22;2582;48.770;9.190;2024-03-06T07:38:22;8.70;99.90
5128;DHT22;2582;48.770;9.190;2024-03-06T07:40:48;8.80;99.90
5128;DHT22;2582;48.770;9.190;2024-03-06T07:43:14;8.70;99.90
5128;DHT22;2582;48.770;9.190;2024-03-06T07:45:39;8.70;99.90
5128;DHT22;2582;48.770;9.190;2024-03-06T07:48:05;8.60;99.90
5128;DHT22;2582;48.770;9.190;2024-03-06T07:50:31;8.60;99.90
5128;DHT22;2582;48.770;9.190;2024-03-06T07:52:56;8.50;99.90
5128;DHT22;2582;48.770;9.190;2024-03-06T07:55:22;8.30;99.90
5128;DHT22;2582;48.770;9.190;2024-03-06T07:57:48;8.00;99.90
5128;DHT22;2582;48.770;9.190;2024-03-06T08:00:14;8.10;99.90
5128;DHT22;2582;48.770;9.190;2024-03-06T08:02:40;8.10;99.90
5128;DHT22;2582;48.770;9.190;2024-03-06T08:05:12;8.20;99.90
5128;DHT22;2582;48.770;9.190;2024-03-06T08:07:39;8.30;99.90
5128;DHT22;2582;48.770;9.190;2024-03-06T08:10:10;8.30;99.90
5128;DHT22;2582;48.770;9.190;2024-03-06T08:12:41;8.40;99.90
5128;DHT22;2582;48.770;9.190;2024-03-06T08:15:08;8.40;99.90
5128;DHT22;2582;48.770;9.190;2024-03-06T08:17:35;8.40;99.90
5128;DHT22;2582;48.770;9.190;2024-03-06T08:20:02;8.50;99.90
5128;DHT22;2582;48.770;9.190;2024-03-06T08:22:34;8.50;99.90
5128;DHT22;2582;48.770;9.190;2024-03-06T08:25:07;8.50;99.90
5128;DHT22;2582;48.770;9.190;2024-03-06T08:27:34;8.50;99.90
5128;DHT22;2582;48.770;9.190;2024-03-06T08:30:02;8.20;99.90
5128;DHT22;2582;48.770;9.190;2024-03-06T08:32:30;8.10;99.90
5128;DHT22;2582;48.770;9.190;2024-03-06T08:34:55;8.00;99.90
5128;DHT22;2582;48.770;9.190;2024-03-06T08:37:21;8.10;99.90
5128;DHT22;2582;48.770;9.190;2024-03-06T08:39:47;8.40;99.90
5128;DHT22;2582;48.770;9.190;2024-03-06T08:42:14;8.40;99.90
5128;DHT22;2582;48.770;9.190;2024-03-06T08:44:44;8.40;99.90
5128;DHT22;2582;48.770;9.190;2024-03-06T08:47:09;8.30;99.90
5128;DHT22;2582;48.770;9.190;2024-03-06T08:49:35;8.30;99.90
5128;DHT22;2582;48.770;9.190;2024-03-06T08:52:00;8.70;99.90
5128;DHT22;2582;48.770;9.190;2024-03-06T08:54:26;8.50;99.90
5128;DHT22;2582;48.770;9.190;2024-03-06T08:56:51;8.50;99.90
5128;DHT22;2582;48.770;9.190;2024-03-06T08:59:23;8.50;99.90
5128;DHT22;2582;48.770;9.190;2024-03-06T09:01:53;8.40;99.90
5128;DHT22;2582;48.770;9.190;2024-03-06T09:04:19;8.30;99.90
5128;DHT22;2582;48.770;9.190;2024-03-06T09:06:45;8.30;99.90
5128;DHT22;2582;48.770;9.190;2024-03-06T09:09:10;8.40;99.90
5128;DHT22;2582;48.770;9.190;2024-03-06T09:11:36;8.40;99.90
5128;DHT22;2582;48.770;9.190;2024-03-06T09:14:01;8.40;99.90
5128;DHT22;2582;48.770;9.190;2024-03-06T09:16:27;8.40;99.90
5128;DHT22;2582;48.770;9.190;2024-03-06T09:18:52;8.40;99.90
5128;DHT22;2582;48.770;9.190;2024-03-06T09:21:18;8.30;99.90
5128;DHT22;2582;48.770;9.190;2024-03-06T09:23:45;8.30;99.90
5128;DHT22;2582;48.770;9.190;2024-03-06T09:26:10;8.40;99.90
5128;DHT22;2582;48.770;9.190;2024-03-06T09:28:36;8.50;99.90
5128;DHT22;2582;48.770;9.190;2024-03-06T09:31:02;8.50;99.90
5128;DHT22;2582;48.770;9.190;2024-03-06T09:33:27;8.50;99.90
5128;DHT22;2582;48.770;9.190;2024-03-06T09:35:53;8.60;99.90
5128;DHT22;2582;48.770;9.190;2024-03-06T09:38:18;8.60;99.90
5128;DHT22;2582;48.770;9.190;2024-03-06T09:40:44;8.50;99.90
5128;DHT22;2582;48.770;9.190;2024-03-06T09:43:10;8.50;99.90
5128;DHT22;2582;48.770;9.190;2024-03-06T09:45:35;8.50;99.90
5128;DHT22;2582;48.770;9.190;2024-03-06T09:48:01;8.60;99.90
5128;DHT22;2582;48.770;9.190;2024-03-06T09:50:29;8.60;99.90
5128;DHT22;2582;48.770;9.190;2024-03-06T09:52:57;8.50;99.90
5128;DHT22;2582;48.770;9.190;2024-03-06T09:55:23;8.40;99.90
5128;DHT22;2582;48.770;9.190;2024-03-06T09:57:49;8.40;99.90
5128;DHT22;2582;48.770;9.190;2024-03-06T10:00:15;8.40;99.90
5128;DHT22;2582;48.770;9.190;2024-03-06T10:02:50;8.40;99.90
5128;DHT22;2582;48.770;9.190;2024-03-06T10:05:23;8.50;99.90
5128;DHT22;2582;48.770;9.190;2024-03-06T10:07:50;8.50;99.90
5128;DHT22;2582;48.770;9.190;2024-03-06T10:10:16;8.40;99.90
5128;DHT22;2582;48.770;9.190;2024-03-06T10:12:44;8.60;99.90
5128;DHT22;2582;48.770;9.190;2024-03-06T10:15:10;8.60;99.90
5128;DHT22;2582;48.770;9.190;2024-03-06T10:17:38;8.80;99.90
5128;DHT22;2582;48.770;9.190;2024-03-06T10:20:24;8.80;99.90
5128;DHT22;2582;48.770;9.190;2024-03-06T10:22:52;8.70;99.90
5128;DHT22;2582;48.770;9.190;2024-03-06T10:25:21;8.80;99.90
5128;DHT22;2582;48.770;9.190;2024-03-06T10:28:10;8.80;99.90
5128;DHT22;2582;48.770;9.190;2024-03-06T10:30:39;8.90;99.90
5128;DHT22;2582;48.770;9.190;2024-03-06T10:33:09;8.80;99.90
5128;DHT22;2582;48.770;9.190;2024-03-06T10:35:40;8.60;99.90
5128;DHT22;2582;48.770;9.190;2024-03-06T10:38:08;8.60;99.90
5128;DHT22;2582;48.770;9.190;2024-03-06T10:40:39;8.60;99.90
5128;DHT22;2582;48.770;9.190;2024-03-06T10:43:06;8.60;99.90
5128;DHT22;2582;48.770;9.190;2024-03-06T10:45:40;8.80;99.90
5128;DHT22;2582;48.770;9.190;2024-03-06T10:48:08;8.60;99.90
5128;DHT22;2582;48.770;9.190;2024-03-06T10:50:38;8.60;99.90
5128;DHT22;2582;48.770;9.190;2024-03-06T10:53:04;8.70;99.90
5128;DHT22;2582;48.770;9.190;2024-03-06T10:55:32;8.70;99.90
5128;DHT22;2582;48.770;9.190;2024-03-06T10:58:00;8.80;99.90
5128;DHT22;2582;48.770;9.190;2024-03-06T11:00:26;8.70;99.90
5128;DHT22;2582;48.770;9.190;2024-03-06T11:02:55;8.90;99.90
5128;DHT22;2582;48.770;9.190;2024-03-06T11:05:21;9.20;99.90
5128;DHT22;2582;48.770;9.190;2024-03-06T11:07:46;9.00;99.90
5128;DHT22;2582;48.770;9.190;2024-03-06T11:10:12;8.80;99.90
5128;DHT22;2582;48.770;9.190;2024-03-06T11:12:42;8.80;99.90
5128;DHT22;2582;48.770;9.190;2024-03-06T11:15:14;8.80;99.90
5128;DHT22;2582;48.770;9.190;2024-03-06T11:17:40;8.70;99.90
5128;DHT22;2582;48.770;9.190;2024-03-06T11:28:23;8.50;99.90
5128;DHT22;2582;48.770;9.190;2024-03-06T11:31:03;8.70;99.90
5128;DHT22;2582;48.770;9.190;2024-03-06T11:33:52;8.80;99.90
5128;DHT22;2582;48.770;9.190;2024-03-06T11:41:12;8.70;99.90
5128;DHT22;2582;48.770;9.190;2024-03-06T11:43:44;8.80;99.90
5128;DHT22;2582;48.770;9.190;2024-03-06T11:46:10;8.70;99.90
5128;DHT22;2582;48.770;9.190;2024-03-06T11:48:37;8.60;99.90
5128;DHT22;2582;48.770;9.190;2024-03-06T11:51:03;8.60;99.90
5128;DHT22;2582;48.770;9.190;2024-03-06T11:53:30;8.60;99.90
5128;DHT22;2582;48.770;9.190;2024-03-06T11:55:56;8.60;99.90
5128;DHT22;2582;48.770;9.190;2024-03-06T11:58:22;8.60;99.90
5128;DHT22;2582;48.770;9.190;2024-03-06T12:00:48;8.60;99.90
5128;DHT22;2582;48.770;9.190;2024-03-06T12:03:13;8.60;99.90
5128;DHT22;2582;48.770;9.190;2024-03-06T12:05:39;8.70;99.90
5128;DHT22;2582;48.770;9.190;2024-03-06T12:08:06;8.70;99.90
5128;DHT22;2582;48.770;9.190;2024-03-06T12:10:37;8.50;99.90
5128;DHT22;2582;48.770;9.190;2024-03-06T12:13:03;8.40;99.90
5128;DHT22;2582;48.770;9.190;2024-03-06T12:15:29;8.50;99.90
5128;DHT22;2582;48.770;9.190;2024-03-06T12:17:54;8.60;99.90
5128;DHT22;2582;48.770;9.190;2024-03-06T12:20:20;8.40;99.90
5128;DHT22;2582;48.770;9.190;2024-03-06T12:25:22;8.60;99.90
5128;DHT22;2582;48.770;9.190;2024-03-06T12:27:49;8.60;99.90
5128;DHT22;2582;48.770;9.190;2024-03-06T12:30:22;8.50;99.90
5128;DHT22;2582;48.770;9.190;2024-03-06T12:33:00;8.40;99.90
5128;DHT22;2582;48.770;9.190;2024-03-06T12:35:29;8.60;99.90
5128;DHT22;2582;48.770;9.190;2024-03-06T12:37:55;8.70;99.90
5128;DHT22;2582;48.770;9.190;2024-03-06T12:40:21;8.80;99.90
5128;DHT22;2582;48.770;9.190;2024-03-06T12:42:47;8.80;99.90
5128;DHT22;2582;48.770;9.190;2024-03-06T12:45:13;8.70;99.90
5128;DHT22;2582;48.770;9.190;2024-03-06T12:47:42;8.80;99.90
5128;DHT22;2582;48.770;9.190;2024-03-06T12:50:09;8.90;99.90
5128;DHT22;2582;48.770;9.190;2024-03-06T12:52:39;8.80;99.90
5128;DHT22;2582;48.770;9.190;2024-03-06T12:55:04;8.70;99.90
5128;DHT22;2582;48.770;9.190;2024-03-06T12:57:31;8.90;99.90
5128;DHT22;2582;48.770;9.190;2024-03-06T12:59:56;8.90;99.90
5128;DHT22;2582;48.770;9.190;2024-03-06T13:02:22;8.90;99.90
5128;DHT22;2582;48.770;9.190;2024-03-06T13:04:48;9.10;99.90
5128;DHT22;2582;48.770;9.190;2024-03-06T13:07:14;9.00;99.90
5128;DHT22;2582;48.770;9.190;2024-03-06T13:09:40;9.00;99.90
5128;DHT22;2582;48.770;9.190;2024-03-06T13:12:06;9.30;99.90
5128;DHT22;2582;48.770;9.190;2024-03-06T13:14:32;9.20;99.90
5128;DHT22;2582;48.770;9.190;2024-03-06T13:16:58;9.20;99.90
5128;DHT22;2582;48.770;9.190;2024-03-06T13:19:23;9.00;99.90
5128;DHT22;2582;48.770;9.190;2024-03-06T13:21:49;9.10;99.90
5128;DHT22;2582;48.770;9.190;2024-03-06T13:24:14;9.10;99.90
5128;DHT22;2582;48.770;9.190;2024-03-06T13:26:40;9.20;99.90
5128;DHT22;2582;48.770;9.190;2024-03-06T13:29:07;9.10;99.90
5128;DHT22;2582;48.770;9.190;2024-03-06T13:31:33;9.10;99.90
5128;DHT22;2582;48.770;9.190;2024-03-06T13:34:02;9.20;99.90
5128;DHT22;2582;48.770;9.190;2024-03-06T13:36:29;9.20;99.90
5128;DHT22;2582;48.770;9.190;2024-03-06T13:38:56;8.90;99.90
5128;DHT22;2582;48.770;9.190;2024-03-06T13:41:22;8.60;99.90
5128;DHT22;2582;48.770;9.190;2024-03-06T13:43:47;8.70;99.90
5128;DHT22;2582;48.770;9.190;2024-03-06T13:46:13;8.70;99.90
5128;DHT22;2582;48.770;9.190;2024-03-06T13:48:39;8.80;99.90
5128;DHT22;2582;48.770;9.190;2024-03-06T13:51:05;8.80;99.90
5128;DHT22;2582;48.770;9.190;2024-03-06T13:53:31;8.80;99.90
5128;DHT22;2582;48.770;9.190;2024-03-06T13:55:56;9.00;99.90
5128;DHT22;2582;48.770;9.190;2024-03-06T13:58:22;8.90;99.90
5128;DHT22;2582;48.770;9.190;2024-03-06T14:00:48;9.00;99.90
5128;DHT22;2582;48.770;9.190;2024-03-06T14:03:14;9.10;99.90
5128;DHT22;2582;48.770;9.190;2024-03-06T14:05:39;9.00;99.90
5128;DHT22;2582;48.770;9.190;2024-03-06T14:08:05;8.90;99.90
5128;DHT22;2582;48.770;9.190;2024-03-06T14:10:31;8.90;99.90
5128;DHT22;2582;48.770;9.190;2024-03-06T14:13:02;8.90;99.90
5128;DHT22;2582;48.770;9.190;2024-03-06T14:15:27;8.90;99.90
5128;DHT22;2582;48.770;9.190;2024-03-06T14:17:53;8.80;99.90
5128;DHT22;2582;48.770;9.190;2024-03-06T14:20:22;8.90;99.90
5128;DHT22;2582;48.770;9.190;2024-03-06T14:22:49;9.10;99.90
5128;DHT22;2582;48.770;9.190;2024-03-06T14:25:15;8.90;99.90
5128;DHT22;2582;48.770;9.190;2024-03-06T14:27:41;8.90;99.90
5128;DHT22;2582;48.770;9.190;2024-03-06T14:30:07;8.90;99.90
5128;DHT22;2582;48.770;9.190;2024-03-06T14:32:33;8.70;99.90
5128;DHT22;2582;48.770;9.190;2024-03-06T14:34:58;8.90;99.90
5128;DHT22;2582;48.770;9.190;2024-03-06T14:37:24;9.10;99.90
5128;DHT22;2582;48.770;9.190;2024-03-06T14:39:50;9.10;99.90
5128;DHT22;2582;48.770;9.190;2024-03-06T14:42:16;8.90;99.90
5128;DHT22;2582;48.770;9.190;2024-03-06T14:44:42;8.90;99.90
5128;DHT22;2582;48.770;9.190;2024-03-06T14:47:09;9.00;99.90
5128;DHT22;2582;48.770;9.190;2024-03-06T14:49:35;8.90;99.90
5128;DHT22;2582;48.770;9.190;2024-03-06T14:52:01;8.90;99.90
5128;DHT22;2582;48.770;9.190;2024-03-06T14:54:28;8.90;99.90
5128;DHT22;2582;48.770;9.190;2024-03-06T14:56:53;8.90;99.90
5128;DHT22;2582;48.770;9.190;2024-03-06T14:59:19;9.00;99.90
5128;DHT22;2582;48.770;9.190;2024-03-06T15:01:45;9.00;99.90
5128;DHT22;2582;48.770;9.190;2024-03-06T15:04:12;9.20;99.90
5128;DHT22;2582;48.770;9.190;2024-03-06T15:06:38;9.30;99.90
5128;DHT22;2582;48.770;9.190;2024-03-06T15:09:04;9.20;99.90
5128;DHT22;2582;48.770;9.190;2024-03-06T15:11:30;9.20;99.90
5128;DHT22;2582;48.770;9.190;2024-03-06T15:13:58;9.20;99.90
5128;DHT22;2582;48.770;9.190;2024-03-06T15:16:24;9.10;99.90
5128;DHT22;2582;48.770;9.190;2024-03-06T15:18:50;9.20;99.90
5128;DHT22;2582;48.770;9.190;2024-03-06T15:21:18;9.30;99.90
5128;DHT22;2582;48.770;9.190;2024-03-06T15:23:44;9.60;99.90
5128;DHT22;2582;48.770;9.190;2024-03-06T15:26:09;9.40;99.90
5128;DHT22;2582;48.770;9.190;2024-03-06T15:28:36;9.50;99.90
5128;DHT22;2582;48.770;9.190;2024-03-06T15:31:01;9.50;99.90
5128;DHT22;2582;48.770;9.190;2024-03-06T15:33:30;9.50;99.90
5128;DHT22;2582;48.770;9.190;2024-03-06T15:35:55;9.30;99.90
5128;DHT22;2582;48.770;9.190;2024-03-06T15:38:21;9.20;99.90
5128;DHT22;2582;48.770;9.190;2024-03-06T15:40:46;9.00;99.90
5128;DHT22;2582;48.770;9.190;2024-03-06T15:43:16;8.80;99.90
5128;DHT22;2582;48.770;9.190;2024-03-06T15:45:42;9.00;99.90
5128;DHT22;2582;48.770;9.190;2024-03-06T15:48:08;9.10;99.90
5128;DHT22;2582;48.770;9.190;2024-03-06T15:50:41;9.20;99.90
5128;DHT22;2582;48.770;9.190;2024-03-06T15:53:07;9.20;99.90
5128;DHT22;2582;48.770;9.190;2024-03-06T15:55:33;9.00;99.90
5128;DHT22;2582;48.770;9.190;2024-03-06T15:58:00;9.00;99.90
5128;DHT22;2582;48.770;9.190;2024-03-06T16:00:26;8.80;99.90
5128;DHT22;2582;48.770;9.190;2024-03-06T16:02:52;8.90;99.90
5128;DHT22;2582;48.770;9.190;2024-03-06T16:05:17;9.00;99.90
5128;DHT22;2582;48.770;9.190;2024-03-06T16:07:43;9.10;99.90
5128;DHT22;2582;48.770;9.190;2024-03-06T16:10:09;9.20;99.90
5128;DHT22;2582;48.770;9.190;2024-03-06T16:12:34;9.10;99.90
5128;DHT22;2582;48.770;9.190;2024-03-06T16:15:00;9.00;99.90
5128;DHT22;2582;48.770;9.190;2024-03-06T16:17:25;9.00;99.90
5128;DHT22;2582;48.770;9.190;2024-03-06T16:19:51;9.10;99.90
5128;DHT22;2582;48.770;9.190;2024-03-06T16:22:17;9.30;99.90
5128;DHT22;2582;48.770;9.190;2024-03-06T16:24:42;9.30;99.90
5128;DHT22;2582;48.770;9.190;2024-03-06T16:27:08;9.30;99.90